sensor_id;sensor_type;location;lat;lon;timestamp;P1;durP1;ratioP1;P2;durP2;ratioP2
840;SDS011;406;48.566;13.450;2023-02-01T00:01:55;5.83;;;3.00;;
840;SDS011;406;48.566;13.450;2023-02-01T00:04:22;3.65;;;2.35;;
840;SDS011;406;48.566;13.450;2023-02-01T00:06:48;5.77;;;3.30;;
840;SDS011;406;48.566;13.450;2023-02-01T00:09:15;3.42;;;2.92;;
840;SDS011;406;48.566;13.450;2023-02-01T00:11:41;7.85;;;3.78;;
840;SDS011;406;48.566;13.450;2023-02-01T00:14:08;4.97;;;3.00;;
840;SDS011;406;48.566;13.450;2023-02-01T00:16:34;4.37;;;2.53;;
840;SDS011;406;48.566;13.450;2023-02-01T00:19:02;4.37;;;2.63;;
840;SDS011;406;48.566;13.450;2023-02-01T00:21:33;5.20;;;3.07;;
840;SDS011;406;48.566;13.450;2023-02-01T00:23:59;4.07;;;3.00;;
840;SDS011;406;48.566;13.450;2023-02-01T00:26:33;4.83;;;2.97;;
840;SDS011;406;48.566;13.450;2023-02-01T00:29:05;5.43;;;2.90;;
840;SDS011;406;48.566;13.450;2023-02-01T00:31:32;3.97;;;3.13;;
840;SDS011;406;48.566;13.450;2023-02-01T00:33:59;4.70;;;2.53;;
840;SDS011;406;48.566;13.450;2023-02-01T00:36:26;10.80;;;3.00;;
840;SDS011;406;48.566;13.450;2023-02-01T00:38:52;5.80;;;3.00;;
840;SDS011;406;48.566;13.450;2023-02-01T00:41:19;3.40;;;2.33;;
840;SDS011;406;48.566;13.450;2023-02-01T00:43:47;4.40;;;2.83;;
840;SDS011;406;48.566;13.450;2023-02-01T00:46:14;6.33;;;4.10;;
840;SDS011;406;48.566;13.450;2023-02-01T00:48:42;5.67;;;3.00;;
840;SDS011;406;48.566;13.450;2023-02-01T00:51:10;4.10;;;3.23;;
840;SDS011;406;48.566;13.450;2023-02-01T00:53:38;4.57;;;3.47;;
840;SDS011;406;48.566;13.450;2023-02-01T00:56:05;5.90;;;3.20;;
840;SDS011;406;48.566;13.450;2023-02-01T00:58:32;6.27;;;3.50;;
840;SDS011;406;48.566;13.450;2023-02-01T01:01:07;5.70;;;2.80;;
840;SDS011;406;48.566;13.450;2023-02-01T01:03:36;5.17;;;3.00;;
840;SDS011;406;48.566;13.450;2023-02-01T01:06:05;4.07;;;3.37;;
840;SDS011;406;48.566;13.450;2023-02-01T01:08:34;7.60;;;4.07;;
840;SDS011;406;48.566;13.450;2023-02-01T01:11:14;2.70;;;2.50;;
840;SDS011;406;48.566;13.450;2023-02-01T01:13:42;5.00;;;3.20;;
840;SDS011;406;48.566;13.450;2023-02-01T01:16:10;4.20;;;3.00;;
840;SDS011;406;48.566;13.450;2023-02-01T01:18:37;4.10;;;3.33;;
840;SDS011;406;48.566;13.450;2023-02-01T01:21:04;5.87;;;3.67;;
840;SDS011;406;48.566;13.450;2023-02-01T01:23:31;5.07;;;3.10;;
840;SDS011;406;48.566;13.450;2023-02-01T01:25:58;2.97;;;2.63;;
840;SDS011;406;48.566;13.450;2023-02-01T01:28:24;4.30;;;3.20;;
840;SDS011;406;48.566;13.450;2023-02-01T01:30:51;4.20;;;3.47;;
840;SDS011;406;48.566;13.450;2023-02-01T01:33:17;4.87;;;3.40;;
840;SDS011;406;48.566;13.450;2023-02-01T01:35:44;4.63;;;2.70;;
840;SDS011;406;48.566;13.450;2023-02-01T01:38:10;4.83;;;2.80;;
840;SDS011;406;48.566;13.450;2023-02-01T01:40:37;6.80;;;3.00;;
840;SDS011;406;48.566;13.450;2023-02-01T01:43:14;4.73;;;3.00;;
840;SDS011;406;48.566;13.450;2023-02-01T01:45:45;5.07;;;2.80;;
840;SDS011;406;48.566;13.450;2023-02-01T01:48:17;5.27;;;3.50;;
840;SDS011;406;48.566;13.450;2023-02-01T01:50:48;5.67;;;3.63;;
840;SDS011;406;48.566;13.450;2023-02-01T01:53:18;4.47;;;2.90;;
840;SDS011;406;48.566;13.450;2023-02-01T01:55:47;4.90;;;2.93;;
840;SDS011;406;48.566;13.450;2023-02-01T01:58:16;3.80;;;3.20;;
840;SDS011;406;48.566;13.450;2023-02-01T02:00:45;5.93;;;3.57;;
840;SDS011;406;48.566;13.450;2023-02-01T02:05:42;5.00;;;3.23;;
840;SDS011;406;48.566;13.450;2023-02-01T02:08:08;3.80;;;2.73;;
840;SDS011;406;48.566;13.450;2023-02-01T02:10:35;5.40;;;3.13;;
840;SDS011;406;48.566;13.450;2023-02-01T02:13:21;7.10;;;3.37;;
840;SDS011;406;48.566;13.450;2023-02-01T02:15:52;5.93;;;3.07;;
840;SDS011;406;48.566;13.450;2023-02-01T02:21:32;4.60;;;3.53;;
840;SDS011;406;48.566;13.450;2023-02-01T02:24:12;3.27;;;2.60;;
840;SDS011;406;48.566;13.450;2023-02-01T02:27:02;4.53;;;2.97;;
840;SDS011;406;48.566;13.450;2023-02-01T02:34:57;4.33;;;3.07;;
840;SDS011;406;48.566;13.450;2023-02-01T02:37:35;5.30;;;2.70;;
840;SDS011;406;48.566;13.450;2023-02-01T02:40:07;4.00;;;2.30;;
840;SDS011;406;48.566;13.450;2023-02-01T02:42:52;5.07;;;3.23;;
840;SDS011;406;48.566;13.450;2023-02-01T02:45:58;5.93;;;3.30;;
840;SDS011;406;48.566;13.450;2023-02-01T02:48:49;4.70;;;2.93;;
840;SDS011;406;48.566;13.450;2023-02-01T02:51:29;3.97;;;2.53;;
840;SDS011;406;48.566;13.450;2023-02-01T02:54:20;5.40;;;3.03;;
840;SDS011;406;48.566;13.450;2023-02-01T02:57:09;6.50;;;3.07;;
840;SDS011;406;48.566;13.450;2023-02-01T02:59:57;4.07;;;3.40;;
840;SDS011;406;48.566;13.450;2023-02-01T03:02:44;5.53;;;3.37;;
840;SDS011;406;48.566;13.450;2023-02-01T03:05:34;4.00;;;3.03;;
840;SDS011;406;48.566;13.450;2023-02-01T03:08:44;4.17;;;3.00;;
840;SDS011;406;48.566;13.450;2023-02-01T03:16:25;7.57;;;2.87;;
840;SDS011;406;48.566;13.450;2023-02-01T03:21:31;4.30;;;3.40;;
840;SDS011;406;48.566;13.450;2023-02-01T03:24:12;5.27;;;3.50;;
840;SDS011;406;48.566;13.450;2023-02-01T03:26:42;3.97;;;2.80;;
840;SDS011;406;48.566;13.450;2023-02-01T03:29:14;5.67;;;3.20;;
840;SDS011;406;48.566;13.450;2023-02-01T03:31:44;4.77;;;3.40;;
840;SDS011;406;48.566;13.450;2023-02-01T03:34:11;6.00;;;3.63;;
840;SDS011;406;48.566;13.450;2023-02-01T03:36:42;4.63;;;3.00;;
840;SDS011;406;48.566;13.450;2023-02-01T03:41:52;10.07;;;3.20;;
840;SDS011;406;48.566;13.450;2023-02-01T03:44:21;4.53;;;3.23;;
840;SDS011;406;48.566;13.450;2023-02-01T03:46:56;4.63;;;3.17;;
840;SDS011;406;48.566;13.450;2023-02-01T03:49:30;3.93;;;3.10;;
840;SDS011;406;48.566;13.450;2023-02-01T03:52:04;6.30;;;3.30;;
840;SDS011;406;48.566;13.450;2023-02-01T03:54:33;3.70;;;2.90;;
840;SDS011;406;48.566;13.450;2023-02-01T03:57:01;4.60;;;3.53;;
840;SDS011;406;48.566;13.450;2023-02-01T03:59:31;5.83;;;3.23;;
840;SDS011;406;48.566;13.450;2023-02-01T04:01:57;7.00;;;3.43;;
840;SDS011;406;48.566;13.450;2023-02-01T04:04:24;4.30;;;3.23;;
840;SDS011;406;48.566;13.450;2023-02-01T04:06:52;3.43;;;3.10;;
840;SDS011;406;48.566;13.450;2023-02-01T04:09:19;5.90;;;3.47;;
840;SDS011;406;48.566;13.450;2023-02-01T04:11:46;4.23;;;2.93;;
840;SDS011;406;48.566;13.450;2023-02-01T04:14:12;4.57;;;2.90;;
840;SDS011;406;48.566;13.450;2023-02-01T04:16:39;5.13;;;3.33;;
840;SDS011;406;48.566;13.450;2023-02-01T04:19:05;3.30;;;2.40;;
840;SDS011;406;48.566;13.450;2023-02-01T04:21:32;4.07;;;3.00;;
840;SDS011;406;48.566;13.450;2023-02-01T04:23:58;4.53;;;2.63;;
840;SDS011;406;48.566;13.450;2023-02-01T04:26:25;3.97;;;3.10;;
840;SDS011;406;48.566;13.450;2023-02-01T04:28:52;4.87;;;3.30;;
840;SDS011;406;48.566;13.450;2023-02-01T04:31:19;4.30;;;3.57;;
840;SDS011;406;48.566;13.450;2023-02-01T04:33:52;5.93;;;3.20;;
840;SDS011;406;48.566;13.450;2023-02-01T04:36:19;3.80;;;2.70;;
840;SDS011;406;48.566;13.450;2023-02-01T04:38:49;3.80;;;3.20;;
840;SDS011;406;48.566;13.450;2023-02-01T04:41:16;5.93;;;3.43;;
840;SDS011;406;48.566;13.450;2023-02-01T04:43:48;3.40;;;3.10;;
840;SDS011;406;48.566;13.450;2023-02-01T04:46:16;4.37;;;2.70;;
840;SDS011;406;48.566;13.450;2023-02-01T04:48:43;6.17;;;3.50;;
840;SDS011;406;48.566;13.450;2023-02-01T04:51:10;4.40;;;3.17;;
840;SDS011;406;48.566;13.450;2023-02-01T04:53:37;6.20;;;3.60;;
840;SDS011;406;48.566;13.450;2023-02-01T04:56:04;4.67;;;3.73;;
840;SDS011;406;48.566;13.450;2023-02-01T04:58:31;4.77;;;3.10;;
840;SDS011;406;48.566;13.450;2023-02-01T05:00:58;6.07;;;3.03;;
840;SDS011;406;48.566;13.450;2023-02-01T05:03:24;6.40;;;3.90;;
840;SDS011;406;48.566;13.450;2023-02-01T05:05:51;4.00;;;2.80;;
840;SDS011;406;48.566;13.450;2023-02-01T05:08:19;6.80;;;3.40;;
840;SDS011;406;48.566;13.450;2023-02-01T05:10:48;5.53;;;3.53;;
840;SDS011;406;48.566;13.450;2023-02-01T05:13:15;6.00;;;3.97;;
840;SDS011;406;48.566;13.450;2023-02-01T05:16:08;4.57;;;3.30;;
840;SDS011;406;48.566;13.450;2023-02-01T05:18:35;3.97;;;3.00;;
840;SDS011;406;48.566;13.450;2023-02-01T05:21:01;4.63;;;3.10;;
840;SDS011;406;48.566;13.450;2023-02-01T05:23:28;6.83;;;4.20;;
840;SDS011;406;48.566;13.450;2023-02-01T05:25:58;6.77;;;3.47;;
840;SDS011;406;48.566;13.450;2023-02-01T05:28:26;5.33;;;3.80;;
840;SDS011;406;48.566;13.450;2023-02-01T05:30:53;4.57;;;4.03;;
840;SDS011;406;48.566;13.450;2023-02-01T05:33:20;3.70;;;3.23;;
840;SDS011;406;48.566;13.450;2023-02-01T05:35:46;4.93;;;4.43;;
840;SDS011;406;48.566;13.450;2023-02-01T05:38:13;6.97;;;4.00;;
840;SDS011;406;48.566;13.450;2023-02-01T05:40:39;6.50;;;4.10;;
840;SDS011;406;48.566;13.450;2023-02-01T05:43:06;5.27;;;4.40;;
840;SDS011;406;48.566;13.450;2023-02-01T05:45:32;5.43;;;4.40;;
840;SDS011;406;48.566;13.450;2023-02-01T05:47:59;5.57;;;4.53;;
840;SDS011;406;48.566;13.450;2023-02-01T05:50:25;6.37;;;4.30;;
840;SDS011;406;48.566;13.450;2023-02-01T05:52:56;5.00;;;3.80;;
840;SDS011;406;48.566;13.450;2023-02-01T05:55:22;5.40;;;3.60;;
840;SDS011;406;48.566;13.450;2023-02-01T05:57:49;7.17;;;5.80;;
840;SDS011;406;48.566;13.450;2023-02-01T06:00:15;3.90;;;2.87;;
840;SDS011;406;48.566;13.450;2023-02-01T06:02:42;7.33;;;4.67;;
840;SDS011;406;48.566;13.450;2023-02-01T06:05:08;6.37;;;4.47;;
840;SDS011;406;48.566;13.450;2023-02-01T06:07:35;5.70;;;4.83;;
840;SDS011;406;48.566;13.450;2023-02-01T06:10:02;6.10;;;4.13;;
840;SDS011;406;48.566;13.450;2023-02-01T06:12:28;4.63;;;4.00;;
840;SDS011;406;48.566;13.450;2023-02-01T06:14:55;5.37;;;4.30;;
840;SDS011;406;48.566;13.450;2023-02-01T06:17:21;6.20;;;4.50;;
840;SDS011;406;48.566;13.450;2023-02-01T06:19:48;5.43;;;4.70;;
840;SDS011;406;48.566;13.450;2023-02-01T06:22:14;6.93;;;5.40;;
840;SDS011;406;48.566;13.450;2023-02-01T06:24:41;6.30;;;4.67;;
840;SDS011;406;48.566;13.450;2023-02-01T06:27:07;5.23;;;4.73;;
840;SDS011;406;48.566;13.450;2023-02-01T06:29:35;7.60;;;5.50;;
840;SDS011;406;48.566;13.450;2023-02-01T06:32:02;6.33;;;4.37;;
840;SDS011;406;48.566;13.450;2023-02-01T06:34:29;6.00;;;5.00;;
840;SDS011;406;48.566;13.450;2023-02-01T06:36:55;5.00;;;4.20;;
840;SDS011;406;48.566;13.450;2023-02-01T06:39:22;6.13;;;4.70;;
840;SDS011;406;48.566;13.450;2023-02-01T06:41:49;7.60;;;4.70;;
840;SDS011;406;48.566;13.450;2023-02-01T06:44:16;5.00;;;3.73;;
840;SDS011;406;48.566;13.450;2023-02-01T06:46:42;5.53;;;4.00;;
840;SDS011;406;48.566;13.450;2023-02-01T06:49:09;6.57;;;4.67;;
840;SDS011;406;48.566;13.450;2023-02-01T06:51:36;6.20;;;4.67;;
840;SDS011;406;48.566;13.450;2023-02-01T06:54:02;7.50;;;5.23;;
840;SDS011;406;48.566;13.450;2023-02-01T06:56:29;5.33;;;3.90;;
840;SDS011;406;48.566;13.450;2023-02-01T06:58:57;9.17;;;4.67;;
840;SDS011;406;48.566;13.450;2023-02-01T07:01:23;5.33;;;4.63;;
840;SDS011;406;48.566;13.450;2023-02-01T07:03:50;5.30;;;3.87;;
840;SDS011;406;48.566;13.450;2023-02-01T07:06:19;5.33;;;4.53;;
840;SDS011;406;48.566;13.450;2023-02-01T07:08:46;5.73;;;4.20;;
840;SDS011;406;48.566;13.450;2023-02-01T07:11:13;5.20;;;4.30;;
840;SDS011;406;48.566;13.450;2023-02-01T07:13:40;6.93;;;5.00;;
840;SDS011;406;48.566;13.450;2023-02-01T07:16:11;6.70;;;4.50;;
840;SDS011;406;48.566;13.450;2023-02-01T07:18:40;5.87;;;3.90;;
840;SDS011;406;48.566;13.450;2023-02-01T07:21:06;7.53;;;3.97;;
840;SDS011;406;48.566;13.450;2023-02-01T07:23:33;5.63;;;4.53;;
840;SDS011;406;48.566;13.450;2023-02-01T07:26:01;5.90;;;4.40;;
840;SDS011;406;48.566;13.450;2023-02-01T07:28:30;6.50;;;4.87;;
840;SDS011;406;48.566;13.450;2023-02-01T07:33:55;5.70;;;4.13;;
840;SDS011;406;48.566;13.450;2023-02-01T07:36:22;5.63;;;4.13;;
840;SDS011;406;48.566;13.450;2023-02-01T07:38:49;6.37;;;4.60;;
840;SDS011;406;48.566;13.450;2023-02-01T07:41:21;7.07;;;4.70;;
840;SDS011;406;48.566;13.450;2023-02-01T07:43:48;7.40;;;3.77;;
840;SDS011;406;48.566;13.450;2023-02-01T07:46:16;6.00;;;4.00;;
840;SDS011;406;48.566;13.450;2023-02-01T07:48:43;6.90;;;4.57;;
840;SDS011;406;48.566;13.450;2023-02-01T07:51:11;6.10;;;4.30;;
840;SDS011;406;48.566;13.450;2023-02-01T07:53:38;5.23;;;4.00;;
840;SDS011;406;48.566;13.450;2023-02-01T07:56:10;5.10;;;3.67;;
840;SDS011;406;48.566;13.450;2023-02-01T07:58:38;5.80;;;3.63;;
840;SDS011;406;48.566;13.450;2023-02-01T08:01:04;4.90;;;3.70;;
840;SDS011;406;48.566;13.450;2023-02-01T08:03:47;5.83;;;4.30;;
840;SDS011;406;48.566;13.450;2023-02-01T08:06:15;4.10;;;3.50;;
840;SDS011;406;48.566;13.450;2023-02-01T08:08:41;4.60;;;3.47;;
840;SDS011;406;48.566;13.450;2023-02-01T08:11:11;4.13;;;3.30;;
840;SDS011;406;48.566;13.450;2023-02-01T08:13:37;3.43;;;3.13;;
840;SDS011;406;48.566;13.450;2023-02-01T08:16:04;4.70;;;3.03;;
840;SDS011;406;48.566;13.450;2023-02-01T08:18:32;4.33;;;3.23;;
840;SDS011;406;48.566;13.450;2023-02-01T08:21:07;4.60;;;3.40;;
840;SDS011;406;48.566;13.450;2023-02-01T08:23:41;3.60;;;2.70;;
840;SDS011;406;48.566;13.450;2023-02-01T08:26:09;6.90;;;2.90;;
840;SDS011;406;48.566;13.450;2023-02-01T08:28:39;3.80;;;2.37;;
840;SDS011;406;48.566;13.450;2023-02-01T08:31:07;4.87;;;3.17;;
840;SDS011;406;48.566;13.450;2023-02-01T08:33:37;5.27;;;3.13;;
840;SDS011;406;48.566;13.450;2023-02-01T08:36:04;4.20;;;2.90;;
840;SDS011;406;48.566;13.450;2023-02-01T08:38:31;4.20;;;3.37;;
840;SDS011;406;48.566;13.450;2023-02-01T08:40:57;4.53;;;2.93;;
840;SDS011;406;48.566;13.450;2023-02-01T08:43:31;3.30;;;2.40;;
840;SDS011;406;48.566;13.450;2023-02-01T08:45:57;4.30;;;2.87;;
840;SDS011;406;48.566;13.450;2023-02-01T08:48:23;4.07;;;2.77;;
840;SDS011;406;48.566;13.450;2023-02-01T08:50:50;3.60;;;2.93;;
840;SDS011;406;48.566;13.450;2023-02-01T08:53:16;3.50;;;3.00;;
840;SDS011;406;48.566;13.450;2023-02-01T08:55:45;3.20;;;2.83;;
840;SDS011;406;48.566;13.450;2023-02-01T08:58:12;5.80;;;3.33;;
840;SDS011;406;48.566;13.450;2023-02-01T09:00:40;3.30;;;2.27;;
840;SDS011;406;48.566;13.450;2023-02-01T09:03:08;3.70;;;2.87;;
840;SDS011;406;48.566;13.450;2023-02-01T09:05:36;2.70;;;2.40;;
840;SDS011;406;48.566;13.450;2023-02-01T09:08:14;2.80;;;2.20;;
840;SDS011;406;48.566;13.450;2023-02-01T09:10:41;4.47;;;2.80;;
840;SDS011;406;48.566;13.450;2023-02-01T09:13:08;4.00;;;2.67;;
840;SDS011;406;48.566;13.450;2023-02-01T09:15:35;2.90;;;2.40;;
840;SDS011;406;48.566;13.450;2023-02-01T09:18:01;6.07;;;2.60;;
840;SDS011;406;48.566;13.450;2023-02-01T09:20:28;6.03;;;3.00;;
840;SDS011;406;48.566;13.450;2023-02-01T09:22:55;4.97;;;2.57;;
840;SDS011;406;48.566;13.450;2023-02-01T09:25:22;3.33;;;2.77;;
840;SDS011;406;48.566;13.450;2023-02-01T09:27:48;3.40;;;3.10;;
840;SDS011;406;48.566;13.450;2023-02-01T09:30:15;5.00;;;3.03;;
840;SDS011;406;48.566;13.450;2023-02-01T09:32:41;4.10;;;2.90;;
840;SDS011;406;48.566;13.450;2023-02-01T09:35:08;3.40;;;2.60;;
840;SDS011;406;48.566;13.450;2023-02-01T09:37:34;3.33;;;2.73;;
840;SDS011;406;48.566;13.450;2023-02-01T09:40:02;6.43;;;3.20;;
840;SDS011;406;48.566;13.450;2023-02-01T09:45:49;5.53;;;3.83;;
840;SDS011;406;48.566;13.450;2023-02-01T09:48:32;4.13;;;3.03;;
840;SDS011;406;48.566;13.450;2023-02-01T09:51:02;5.33;;;3.70;;
840;SDS011;406;48.566;13.450;2023-02-01T09:53:34;4.83;;;3.30;;
840;SDS011;406;48.566;13.450;2023-02-01T09:56:06;5.67;;;3.40;;
840;SDS011;406;48.566;13.450;2023-02-01T09:58:38;3.53;;;3.00;;
840;SDS011;406;48.566;13.450;2023-02-01T10:01:20;3.57;;;3.07;;
840;SDS011;406;48.566;13.450;2023-02-01T10:03:49;5.18;;;3.10;;
840;SDS011;406;48.566;13.450;2023-02-01T10:16:51;4.53;;;3.20;;
840;SDS011;406;48.566;13.450;2023-02-01T10:22:11;3.53;;;3.23;;
840;SDS011;406;48.566;13.450;2023-02-01T10:25:25;3.93;;;2.93;;
840;SDS011;406;48.566;13.450;2023-02-01T10:27:52;4.27;;;2.70;;
840;SDS011;406;48.566;13.450;2023-02-01T10:30:20;3.93;;;2.93;;
840;SDS011;406;48.566;13.450;2023-02-01T10:32:55;3.97;;;2.50;;
840;SDS011;406;48.566;13.450;2023-02-01T10:35:27;3.13;;;2.00;;
840;SDS011;406;48.566;13.450;2023-02-01T10:37:55;3.20;;;1.93;;
840;SDS011;406;48.566;13.450;2023-02-01T10:40:23;2.87;;;1.97;;
840;SDS011;406;48.566;13.450;2023-02-01T10:42:53;3.67;;;2.33;;
840;SDS011;406;48.566;13.450;2023-02-01T10:45:23;3.47;;;2.33;;
840;SDS011;406;48.566;13.450;2023-02-01T10:47:52;3.20;;;2.40;;
840;SDS011;406;48.566;13.450;2023-02-01T10:50:33;2.87;;;2.30;;
840;SDS011;406;48.566;13.450;2023-02-01T10:53:12;2.97;;;2.57;;
840;SDS011;406;48.566;13.450;2023-02-01T10:58:30;5.17;;;3.37;;
840;SDS011;406;48.566;13.450;2023-02-01T11:01:00;3.40;;;2.50;;
840;SDS011;406;48.566;13.450;2023-02-01T11:03:34;3.20;;;2.40;;
840;SDS011;406;48.566;13.450;2023-02-01T11:06:09;5.13;;;3.23;;
840;SDS011;406;48.566;13.450;2023-02-01T11:08:45;4.50;;;2.93;;
840;SDS011;406;48.566;13.450;2023-02-01T11:11:13;5.83;;;3.20;;
840;SDS011;406;48.566;13.450;2023-02-01T11:13:41;4.60;;;3.77;;
840;SDS011;406;48.566;13.450;2023-02-01T11:16:13;5.73;;;3.43;;
840;SDS011;406;48.566;13.450;2023-02-01T11:18:41;4.17;;;2.50;;
840;SDS011;406;48.566;13.450;2023-02-01T11:21:08;4.63;;;3.63;;
840;SDS011;406;48.566;13.450;2023-02-01T11:23:39;4.67;;;3.50;;
840;SDS011;406;48.566;13.450;2023-02-01T11:26:14;4.03;;;2.83;;
840;SDS011;406;48.566;13.450;2023-02-01T11:29:19;5.23;;;3.93;;
840;SDS011;406;48.566;13.450;2023-02-01T11:31:39;5.77;;;2.90;;
840;SDS011;406;48.566;13.450;2023-02-01T11:34:12;4.20;;;3.50;;
840;SDS011;406;48.566;13.450;2023-02-01T11:36:45;5.87;;;3.93;;
840;SDS011;406;48.566;13.450;2023-02-01T11:39:18;3.97;;;2.90;;
840;SDS011;406;48.566;13.450;2023-02-01T11:42:01;6.80;;;3.97;;
840;SDS011;406;48.566;13.450;2023-02-01T11:44:38;5.07;;;2.70;;
840;SDS011;406;48.566;13.450;2023-02-01T11:47:19;4.93;;;3.30;;
840;SDS011;406;48.566;13.450;2023-02-01T11:49:54;3.60;;;2.40;;
840;SDS011;406;48.566;13.450;2023-02-01T11:55:17;3.03;;;2.73;;
840;SDS011;406;48.566;13.450;2023-02-01T12:11:18;2.83;;;2.53;;
840;SDS011;406;48.566;13.450;2023-02-01T12:16:57;4.13;;;2.50;;
840;SDS011;406;48.566;13.450;2023-02-01T12:22:25;3.53;;;2.90;;
840;SDS011;406;48.566;13.450;2023-02-01T12:25:20;6.30;;;2.17;;
840;SDS011;406;48.566;13.450;2023-02-01T12:27:59;2.53;;;2.00;;
840;SDS011;406;48.566;13.450;2023-02-01T12:33:17;3.77;;;2.23;;
840;SDS011;406;48.566;13.450;2023-02-01T12:35:57;3.40;;;2.40;;
840;SDS011;406;48.566;13.450;2023-02-01T12:38:35;5.17;;;2.97;;
840;SDS011;406;48.566;13.450;2023-02-01T12:46:46;1.87;;;1.37;;
840;SDS011;406;48.566;13.450;2023-02-01T12:49:21;2.47;;;1.83;;
840;SDS011;406;48.566;13.450;2023-02-01T12:51:52;3.43;;;2.20;;
840;SDS011;406;48.566;13.450;2023-02-01T12:54:30;3.40;;;2.00;;
840;SDS011;406;48.566;13.450;2023-02-01T12:57:02;6.70;;;2.97;;
840;SDS011;406;48.566;13.450;2023-02-01T12:59:33;8.83;;;2.70;;
840;SDS011;406;48.566;13.450;2023-02-01T13:02:15;3.37;;;2.40;;
840;SDS011;406;48.566;13.450;2023-02-01T13:07:41;11.83;;;3.20;;
840;SDS011;406;48.566;13.450;2023-02-01T13:15:51;4.30;;;2.33;;
840;SDS011;406;48.566;13.450;2023-02-01T13:18:25;3.77;;;2.40;;
840;SDS011;406;48.566;13.450;2023-02-01T13:21:01;4.73;;;2.77;;
840;SDS011;406;48.566;13.450;2023-02-01T13:23:34;4.10;;;2.33;;
840;SDS011;406;48.566;13.450;2023-02-01T13:26:02;4.70;;;3.27;;
840;SDS011;406;48.566;13.450;2023-02-01T13:28:40;3.63;;;2.73;;
840;SDS011;406;48.566;13.450;2023-02-01T13:31:20;4.37;;;3.40;;
840;SDS011;406;48.566;13.450;2023-02-01T13:39:48;4.67;;;2.57;;
840;SDS011;406;48.566;13.450;2023-02-01T13:42:22;5.67;;;2.70;;
840;SDS011;406;48.566;13.450;2023-02-01T13:47:41;5.30;;;3.13;;
840;SDS011;406;48.566;13.450;2023-02-01T13:55:38;5.03;;;3.07;;
840;SDS011;406;48.566;13.450;2023-02-01T13:58:14;5.70;;;3.13;;
840;SDS011;406;48.566;13.450;2023-02-01T14:00:45;5.87;;;3.27;;
840;SDS011;406;48.566;13.450;2023-02-01T14:03:15;3.17;;;2.63;;
840;SDS011;406;48.566;13.450;2023-02-01T14:16:43;6.00;;;3.30;;
840;SDS011;406;48.566;13.450;2023-02-01T14:19:31;5.93;;;3.60;;
840;SDS011;406;48.566;13.450;2023-02-01T14:22:00;4.87;;;3.53;;
840;SDS011;406;48.566;13.450;2023-02-01T14:24:31;4.50;;;3.90;;
840;SDS011;406;48.566;13.450;2023-02-01T14:27:07;4.53;;;3.63;;
840;SDS011;406;48.566;13.450;2023-02-01T14:29:44;3.63;;;2.87;;
840;SDS011;406;48.566;13.450;2023-02-01T14:32:24;6.33;;;3.60;;
840;SDS011;406;48.566;13.450;2023-02-01T14:34:53;7.57;;;3.30;;
840;SDS011;406;48.566;13.450;2023-02-01T14:37:24;4.80;;;3.17;;
840;SDS011;406;48.566;13.450;2023-02-01T14:39:58;3.73;;;3.03;;
840;SDS011;406;48.566;13.450;2023-02-01T14:42:42;5.30;;;3.40;;
840;SDS011;406;48.566;13.450;2023-02-01T15:00:58;3.53;;;2.97;;
840;SDS011;406;48.566;13.450;2023-02-01T15:08:58;3.90;;;2.60;;
840;SDS011;406;48.566;13.450;2023-02-01T15:11:27;6.80;;;3.90;;
840;SDS011;406;48.566;13.450;2023-02-01T15:13:53;4.93;;;3.30;;
840;SDS011;406;48.566;13.450;2023-02-01T15:16:23;5.10;;;3.07;;
840;SDS011;406;48.566;13.450;2023-02-01T15:19:02;4.40;;;3.00;;
840;SDS011;406;48.566;13.450;2023-02-01T15:21:43;4.90;;;3.13;;
840;SDS011;406;48.566;13.450;2023-02-01T15:24:19;3.00;;;2.70;;
840;SDS011;406;48.566;13.450;2023-02-01T15:26:47;3.30;;;2.20;;
840;SDS011;406;48.566;13.450;2023-02-01T15:29:14;4.23;;;2.20;;
840;SDS011;406;48.566;13.450;2023-02-01T15:31:45;7.77;;;2.53;;
840;SDS011;406;48.566;13.450;2023-02-01T15:34:13;5.17;;;2.57;;
840;SDS011;406;48.566;13.450;2023-02-01T15:36:40;4.90;;;2.77;;
840;SDS011;406;48.566;13.450;2023-02-01T15:39:24;3.03;;;2.53;;
840;SDS011;406;48.566;13.450;2023-02-01T15:44:43;4.77;;;2.93;;
840;SDS011;406;48.566;13.450;2023-02-01T15:47:19;5.17;;;2.37;;
840;SDS011;406;48.566;13.450;2023-02-01T15:49:50;5.00;;;2.40;;
840;SDS011;406;48.566;13.450;2023-02-01T15:52:34;4.07;;;2.43;;
840;SDS011;406;48.566;13.450;2023-02-01T15:55:17;3.40;;;2.00;;
840;SDS011;406;48.566;13.450;2023-02-01T15:57:47;4.17;;;2.40;;
840;SDS011;406;48.566;13.450;2023-02-01T16:00:21;5.10;;;1.90;;
840;SDS011;406;48.566;13.450;2023-02-01T16:02:56;4.97;;;2.57;;
840;SDS011;406;48.566;13.450;2023-02-01T16:10:31;9.17;;;3.93;;
840;SDS011;406;48.566;13.450;2023-02-01T16:12:58;3.40;;;2.13;;
840;SDS011;406;48.566;13.450;2023-02-01T16:15:26;9.27;;;3.07;;
840;SDS011;406;48.566;13.450;2023-02-01T16:17:55;5.20;;;2.70;;
840;SDS011;406;48.566;13.450;2023-02-01T16:20:22;5.07;;;2.37;;
840;SDS011;406;48.566;13.450;2023-02-01T16:22:48;12.57;;;3.40;;
840;SDS011;406;48.566;13.450;2023-02-01T16:25:15;4.83;;;2.80;;
840;SDS011;406;48.566;13.450;2023-02-01T16:27:41;7.70;;;2.90;;
840;SDS011;406;48.566;13.450;2023-02-01T16:30:08;3.43;;;2.90;;
840;SDS011;406;48.566;13.450;2023-02-01T16:32:36;5.80;;;2.33;;
840;SDS011;406;48.566;13.450;2023-02-01T16:35:11;4.43;;;2.43;;
840;SDS011;406;48.566;13.450;2023-02-01T16:37:41;3.47;;;2.20;;
840;SDS011;406;48.566;13.450;2023-02-01T16:40:12;3.70;;;2.00;;
840;SDS011;406;48.566;13.450;2023-02-01T16:42:42;2.77;;;2.57;;
840;SDS011;406;48.566;13.450;2023-02-01T16:45:08;4.70;;;1.83;;
840;SDS011;406;48.566;13.450;2023-02-01T16:47:36;4.70;;;2.87;;
840;SDS011;406;48.566;13.450;2023-02-01T16:50:03;5.70;;;2.00;;
840;SDS011;406;48.566;13.450;2023-02-01T16:52:46;3.77;;;2.00;;
840;SDS011;406;48.566;13.450;2023-02-01T16:55:14;4.80;;;3.00;;
840;SDS011;406;48.566;13.450;2023-02-01T16:57:42;6.63;;;2.60;;
840;SDS011;406;48.566;13.450;2023-02-01T17:00:09;5.80;;;2.50;;
840;SDS011;406;48.566;13.450;2023-02-01T17:02:49;2.83;;;2.17;;
840;SDS011;406;48.566;13.450;2023-02-01T17:05:16;3.20;;;2.63;;
840;SDS011;406;48.566;13.450;2023-02-01T17:07:43;5.67;;;2.70;;
840;SDS011;406;48.566;13.450;2023-02-01T17:10:25;4.33;;;2.60;;
840;SDS011;406;48.566;13.450;2023-02-01T17:12:59;4.20;;;2.23;;
840;SDS011;406;48.566;13.450;2023-02-01T17:15:26;11.37;;;2.97;;
840;SDS011;406;48.566;13.450;2023-02-01T17:17:55;4.90;;;1.57;;
840;SDS011;406;48.566;13.450;2023-02-01T17:20:24;3.80;;;1.87;;
840;SDS011;406;48.566;13.450;2023-02-01T17:22:52;3.77;;;1.80;;
840;SDS011;406;48.566;13.450;2023-02-01T17:25:20;3.87;;;1.70;;
840;SDS011;406;48.566;13.450;2023-02-01T17:27:48;5.73;;;2.67;;
840;SDS011;406;48.566;13.450;2023-02-01T17:30:14;9.77;;;2.20;;
840;SDS011;406;48.566;13.450;2023-02-01T17:32:41;6.30;;;2.67;;
840;SDS011;406;48.566;13.450;2023-02-01T17:35:19;5.43;;;2.37;;
840;SDS011;406;48.566;13.450;2023-02-01T17:37:48;2.70;;;2.23;;
840;SDS011;406;48.566;13.450;2023-02-01T17:40:15;6.40;;;2.50;;
840;SDS011;406;48.566;13.450;2023-02-01T17:42:42;4.47;;;2.83;;
840;SDS011;406;48.566;13.450;2023-02-01T17:45:18;4.33;;;2.10;;
840;SDS011;406;48.566;13.450;2023-02-01T17:47:47;7.43;;;2.43;;
840;SDS011;406;48.566;13.450;2023-02-01T17:50:14;3.13;;;2.53;;
840;SDS011;406;48.566;13.450;2023-02-01T17:52:41;2.73;;;2.00;;
840;SDS011;406;48.566;13.450;2023-02-01T17:55:17;3.60;;;1.97;;
840;SDS011;406;48.566;13.450;2023-02-01T17:57:44;5.57;;;1.97;;
840;SDS011;406;48.566;13.450;2023-02-01T18:00:11;2.50;;;1.80;;
840;SDS011;406;48.566;13.450;2023-02-01T18:02:38;5.10;;;2.37;;
840;SDS011;406;48.566;13.450;2023-02-01T18:05:48;7.03;;;2.30;;
840;SDS011;406;48.566;13.450;2023-02-01T18:07:59;8.43;;;2.73;;
840;SDS011;406;48.566;13.450;2023-02-01T18:10:25;5.83;;;2.03;;